Time;durP1;ratioP1;P1;durP2;ratioP2;P2;SDS_P1;SDS_P2;PMS_P1;PMS_P2;Temp;Humidity;BMP_temperature;BMP_pressure;BME280_temperature;BME280_humidity;BME280_pressure;Samples;Min_cycle;Max_cycle;Signal;HPM_P1;HPM_P2
2023/03/10 00:02:15;;;;;;;;;;;4.10;93.10;;;;;;5100655;28;20288;-66
2023/03/10 00:04:40;;;;;;;;;;;3.90;93.10;;;;;;5105791;27;19915;-66
2023/03/10 00:07:06;;;;;;;;;;;3.90;93.30;;;;;;5103529;27;20324;-66
2023/03/10 00:09:31;;;;;;;;;;;4.00;93.30;;;;;;5101011;28;20012;-66
2023/03/10 00:11:57;;;;;;;;;;;4.00;93.20;;;;;;5101006;28;19919;-67
2023/03/10 00:14:22;;;;;;;;;;;4.00;93.20;;;;;;5103530;28;20282;-65
2023/03/10 00:16:47;;;;;;;;;;;4.00;93.20;;;;;;5100049;28;19908;-66
2023/03/10 00:19:13;;;;;;;;;;;4.10;93.30;;;;;;5099909;28;19964;-67
2023/03/10 00:21:38;;;;;;;;;;;4.10;93.20;;;;;;5101204;27;19916;-66
2023/03/10 00:24:04;;;;;;;;;;;4.10;93.10;;;;;;5096085;27;20358;-66
2023/03/10 00:26:30;;;;;;;;;;;4.20;93.00;;;;;;5095657;27;19915;-66
2023/03/10 00:28:56;;;;;;;;;;;4.20;93.10;;;;;;5099534;28;19908;-67
2023/03/10 00:31:22;;;;;;;;;;;4.20;93.00;;;;;;5099191;27;19911;-66
2023/03/10 00:33:48;;;;;;;;;;;4.30;93.00;;;;;;5102527;27;19915;-66
2023/03/10 00:36:21;;;;;;;;;;;4.30;92.90;;;;;;5102778;28;19924;-66
2023/03/10 00:38:47;;;;;;;;;;;4.30;92.90;;;;;;5098308;28;20676;-66
2023/03/10 00:41:14;;;;;;;;;;;4.30;93.00;;;;;;5094380;27;19911;-66
2023/03/10 00:43:39;;;;;;;;;;;4.20;93.00;;;;;;5101231;28;19916;-66
2023/03/10 00:46:05;;;;;;;;;;;4.20;93.10;;;;;;5091504;28;19908;-65
2023/03/10 00:48:31;;;;;;;;;;;4.30;93.10;;;;;;5097052;27;19916;-66
2023/03/10 00:50:57;;;;;;;;;;;4.30;93.10;;;;;;5097730;28;20386;-66
2023/03/10 00:53:23;;;;;;;;;;;4.30;93.10;;;;;;5104323;28;19908;-66
2023/03/10 00:56:18;;;;;;;;;;;4.30;93.10;;;;;;5098393;28;19957;-64
2023/03/10 00:58:44;;;;;;;;;;;4.30;93.10;;;;;;5094763;27;19923;-63
2023/03/10 01:01:12;;;;;;;;;;;4.20;93.10;;;;;;5106165;27;19907;-65
2023/03/10 01:03:37;;;;;;;;;;;4.20;93.20;;;;;;5099885;28;20411;-66
2023/03/10 01:06:03;;;;;;;;;;;4.20;93.20;;;;;;5104612;27;19912;-65
2023/03/10 01:08:28;;;;;;;;;;;4.30;93.30;;;;;;5102049;27;20441;-67
2023/03/10 01:10:54;;;;;;;;;;;4.30;93.20;;;;;;5104565;27;19916;-66
2023/03/10 01:13:19;;;;;;;;;;;4.30;93.20;;;;;;5105531;28;19914;-64
2023/03/10 01:15:49;;;;;;;;;;;4.40;93.20;;;;;;5104219;28;20382;-65
2023/03/10 01:18:15;;;;;;;;;;;4.40;93.10;;;;;;5101382;27;19916;-65
2023/03/10 01:20:41;;;;;;;;;;;4.40;93.10;;;;;;5096051;27;19912;-66
2023/03/10 01:23:08;;;;;;;;;;;4.40;93.10;;;;;;5098202;28;19908;-66
2023/03/10 01:25:34;;;;;;;;;;;4.40;93.10;;;;;;5096423;27;19915;-63
2023/03/10 01:27:59;;;;;;;;;;;4.40;93.40;;;;;;5100099;27;19945;-64
2023/03/10 01:30:25;;;;;;;;;;;4.40;93.00;;;;;;5099076;27;19968;-67
2023/03/10 01:32:50;;;;;;;;;;;4.50;93.00;;;;;;5098351;27;19908;-65
2023/03/10 01:35:16;;;;;;;;;;;4.50;92.90;;;;;;5100066;28;19957;-64
2023/03/10 01:37:41;;;;;;;;;;;4.60;92.80;;;;;;5106652;27;19943;-64
2023/03/10 01:40:08;;;;;;;;;;;4.60;92.80;;;;;;5102252;27;19911;-66
2023/03/10 01:42:33;;;;;;;;;;;4.60;92.70;;;;;;5104464;27;19908;-66
2023/03/10 01:45:28;;;;;;;;;;;4.60;92.70;;;;;;5104124;27;19953;-66
2023/03/10 01:47:54;;;;;;;;;;;4.70;92.70;;;;;;5073999;28;19912;-66
2023/03/10 01:50:20;;;;;;;;;;;4.70;92.60;;;;;;5104781;28;20676;-67
2023/03/10 01:52:47;;;;;;;;;;;4.70;92.60;;;;;;5095957;28;19908;-66
2023/03/10 01:55:17;;;;;;;;;;;4.80;92.60;;;;;;5101423;28;19937;-67
2023/03/10 01:57:46;;;;;;;;;;;4.80;92.50;;;;;;5105383;27;19916;-67
2023/03/10 02:00:12;;;;;;;;;;;4.80;92.40;;;;;;5103263;28;20353;-67
2023/03/10 02:02:56;;;;;;;;;;;4.80;92.40;;;;;;5101244;28;19907;-67
2023/03/10 02:05:22;;;;;;;;;;;4.80;92.40;;;;;;5108771;27;19907;-67
2023/03/10 02:07:47;;;;;;;;;;;4.80;92.30;;;;;;5101573;27;19958;-67
2023/03/10 02:10:13;;;;;;;;;;;4.80;92.30;;;;;;5101987;28;19908;-67
2023/03/10 02:12:39;;;;;;;;;;;4.80;92.30;;;;;;5103267;28;19915;-66
2023/03/10 02:15:05;;;;;;;;;;;4.80;92.30;;;;;;5104121;28;19985;-66
2023/03/10 02:17:32;;;;;;;;;;;4.80;92.30;;;;;;5100440;28;19908;-66
2023/03/10 02:20:01;;;;;;;;;;;4.80;92.30;;;;;;5097316;28;19916;-67
2023/03/10 02:22:27;;;;;;;;;;;4.80;92.30;;;;;;5097618;28;19915;-67
2023/03/10 02:24:55;;;;;;;;;;;4.90;92.30;;;;;;5099246;28;19912;-66
2023/03/10 02:27:25;;;;;;;;;;;4.90;92.30;;;;;;5103817;28;19915;-67
2023/03/10 02:29:54;;;;;;;;;;;4.90;92.30;;;;;;5098571;28;19915;-67
2023/03/10 02:32:21;;;;;;;;;;;5.00;92.20;;;;;;5102255;28;19915;-67
2023/03/10 02:34:46;;;;;;;;;;;4.90;92.20;;;;;;5098290;28;20006;-66
2023/03/10 02:37:19;;;;;;;;;;;4.90;92.10;;;;;;5099454;28;20004;-66
2023/03/10 02:39:44;;;;;;;;;;;4.90;92.10;;;;;;5099314;28;19912;-66
2023/03/10 02:42:10;;;;;;;;;;;4.90;92.10;;;;;;5095899;28;19984;-67
2023/03/10 02:44:36;;;;;;;;;;;4.90;92.10;;;;;;5100644;28;20007;-66
2023/03/10 02:47:01;;;;;;;;;;;4.90;92.20;;;;;;5097994;28;19908;-67
2023/03/10 02:49:27;;;;;;;;;;;5.00;92.10;;;;;;5101797;28;19907;-66
2023/03/10 02:51:53;;;;;;;;;;;4.80;92.00;;;;;;5102033;28;19935;-68
2023/03/10 02:54:18;;;;;;;;;;;4.80;92.20;;;;;;5099789;28;19953;-66
2023/03/10 02:56:44;;;;;;;;;;;4.70;92.30;;;;;;5097836;28;20006;-66
2023/03/10 02:59:10;;;;;;;;;;;4.80;92.40;;;;;;5102577;28;19915;-68
2023/03/10 03:01:35;;;;;;;;;;;4.80;92.40;;;;;;5105821;27;19907;-66
2023/03/10 03:04:01;;;;;;;;;;;4.90;92.40;;;;;;5094071;28;19916;-66
2023/03/10 03:06:27;;;;;;;;;;;4.90;92.40;;;;;;5102096;28;19985;-67
2023/03/10 03:08:52;;;;;;;;;;;4.90;92.30;;;;;;5105579;28;19919;-67
2023/03/10 03:11:18;;;;;;;;;;;5.00;92.20;;;;;;5104914;27;19908;-66
2023/03/10 03:13:44;;;;;;;;;;;4.90;92.10;;;;;;5102549;28;19914;-67
2023/03/10 03:16:09;;;;;;;;;;;4.90;92.20;;;;;;5104557;27;19913;-67
2023/03/10 03:18:35;;;;;;;;;;;4.90;92.20;;;;;;5105041;27;19908;-67
2023/03/10 03:21:05;;;;;;;;;;;4.90;92.20;;;;;;5103060;27;19956;-67
2023/03/10 03:23:30;;;;;;;;;;;4.90;92.20;;;;;;5103391;28;21517;-67
2023/03/10 03:25:55;;;;;;;;;;;4.90;92.30;;;;;;5101201;28;20002;-67
2023/03/10 03:28:21;;;;;;;;;;;4.90;92.30;;;;;;5111056;27;19907;-66
2023/03/10 03:30:46;;;;;;;;;;;4.90;92.30;;;;;;5099365;28;19915;-66
2023/03/10 03:33:12;;;;;;;;;;;4.90;92.30;;;;;;5103096;28;20369;-66
2023/03/10 03:35:39;;;;;;;;;;;4.90;92.30;;;;;;5101519;28;20560;-66
2023/03/10 03:38:05;;;;;;;;;;;4.70;92.30;;;;;;5106672;27;19986;-66
2023/03/10 03:40:32;;;;;;;;;;;4.80;92.40;;;;;;5102922;27;19951;-67
2023/03/10 03:42:58;;;;;;;;;;;4.70;92.30;;;;;;5103667;28;19915;-67
2023/03/10 03:45:24;;;;;;;;;;;4.70;92.40;;;;;;5097845;28;20566;-66
2023/03/10 03:47:50;;;;;;;;;;;4.70;92.50;;;;;;5108040;27;19907;-66
2023/03/10 03:50:17;;;;;;;;;;;4.70;92.50;;;;;;5100964;27;19923;-66
2023/03/10 03:52:42;;;;;;;;;;;4.80;92.50;;;;;;5099328;28;20281;-67
2023/03/10 03:55:10;;;;;;;;;;;4.80;92.30;;;;;;5107582;27;19912;-67
2023/03/10 03:57:36;;;;;;;;;;;4.70;92.20;;;;;;5105481;27;19908;-65
2023/03/10 04:00:06;;;;;;;;;;;4.80;92.40;;;;;;5100472;27;20392;-65
2023/03/10 04:02:32;;;;;;;;;;;4.70;92.30;;;;;;5099853;27;19991;-66
2023/03/10 04:04:57;;;;;;;;;;;4.60;92.40;;;;;;5102211;27;20392;-67
2023/03/10 04:07:23;;;;;;;;;;;4.60;92.40;;;;;;5102377;27;20521;-66
2023/03/10 04:09:48;;;;;;;;;;;4.50;92.50;;;;;;5106517;28;19915;-66
2023/03/10 04:12:14;;;;;;;;;;;4.50;92.60;;;;;;5102710;27;19908;-66
2023/03/10 04:14:39;;;;;;;;;;;4.60;92.70;;;;;;5106162;27;19907;-66
2023/03/10 04:17:04;;;;;;;;;;;4.60;92.60;;;;;;5102310;28;19915;-66
2023/03/10 04:19:30;;;;;;;;;;;4.70;92.50;;;;;;5101839;28;20464;-66
2023/03/10 04:21:55;;;;;;;;;;;4.70;92.40;;;;;;5103099;27;19911;-65
2023/03/10 04:24:21;;;;;;;;;;;4.70;92.30;;;;;;5103751;28;19915;-66
2023/03/10 04:26:47;;;;;;;;;;;4.70;92.20;;;;;;5100206;28;19998;-66
2023/03/10 04:29:12;;;;;;;;;;;4.70;92.30;;;;;;5102945;28;19994;-66
2023/03/10 04:31:38;;;;;;;;;;;4.70;92.30;;;;;;5105439;27;19907;-66
2023/03/10 04:34:03;;;;;;;;;;;4.70;92.30;;;;;;5109817;28;19914;-68
2023/03/10 04:36:29;;;;;;;;;;;4.70;92.20;;;;;;5099592;28;20381;-65
2023/03/10 04:38:54;;;;;;;;;;;4.80;92.20;;;;;;5103662;28;19930;-66
2023/03/10 04:41:20;;;;;;;;;;;4.80;92.20;;;;;;5105093;27;19916;-67
2023/03/10 04:43:45;;;;;;;;;;;4.80;92.10;;;;;;5104628;27;20009;-66
2023/03/10 04:46:11;;;;;;;;;;;4.70;92.10;;;;;;5100718;28;19914;-66
2023/03/10 04:48:36;;;;;;;;;;;4.70;92.00;;;;;;5101579;28;20392;-65
2023/03/10 04:51:06;;;;;;;;;;;4.60;92.00;;;;;;5105245;28;19911;-66
2023/03/10 04:53:32;;;;;;;;;;;4.60;92.20;;;;;;5099798;27;19907;-66
2023/03/10 04:55:58;;;;;;;;;;;4.60;92.20;;;;;;5101633;28;19919;-65
2023/03/10 04:58:24;;;;;;;;;;;4.60;92.20;;;;;;5101846;28;19919;-66
2023/03/10 05:00:50;;;;;;;;;;;4.70;92.20;;;;;;5100929;28;19934;-67
2023/03/10 05:03:15;;;;;;;;;;;4.70;92.20;;;;;;5107501;27;20324;-66
2023/03/10 05:05:41;;;;;;;;;;;4.60;92.10;;;;;;5099654;28;19908;-66
2023/03/10 05:08:07;;;;;;;;;;;4.60;92.20;;;;;;5104545;28;19961;-66
2023/03/10 05:10:32;;;;;;;;;;;4.60;92.10;;;;;;5099664;27;19914;-66
2023/03/10 05:12:58;;;;;;;;;;;4.60;92.20;;;;;;5104527;27;19908;-66
2023/03/10 05:15:23;;;;;;;;;;;4.60;92.20;;;;;;5099986;27;20043;-66
2023/03/10 05:17:48;;;;;;;;;;;4.60;92.20;;;;;;5102476;27;20521;-65
2023/03/10 05:20:14;;;;;;;;;;;4.50;92.20;;;;;;5105597;28;20002;-66
2023/03/10 05:22:40;;;;;;;;;;;4.40;92.30;;;;;;5099826;28;19929;-65
2023/03/10 05:25:06;;;;;;;;;;;4.40;92.40;;;;;;5099363;28;19912;-65
2023/03/10 05:27:32;;;;;;;;;;;4.50;92.40;;;;;;5102594;28;19998;-66
2023/03/10 05:29:58;;;;;;;;;;;4.50;92.30;;;;;;5099393;28;20402;-66
2023/03/10 05:32:24;;;;;;;;;;;4.60;92.30;;;;;;5105609;28;20343;-65
2023/03/10 05:34:49;;;;;;;;;;;4.50;92.20;;;;;;5100358;28;19923;-65
2023/03/10 05:37:15;;;;;;;;;;;4.50;92.30;;;;;;5098590;28;19908;-66
2023/03/10 05:39:42;;;;;;;;;;;4.50;92.30;;;;;;5101531;27;20420;-67
2023/03/10 05:42:08;;;;;;;;;;;4.50;92.30;;;;;;5100452;27;19919;-65
2023/03/10 05:44:34;;;;;;;;;;;4.50;92.20;;;;;;5103491;28;19908;-67
2023/03/10 05:46:59;;;;;;;;;;;4.60;92.30;;;;;;5101793;28;19934;-65
2023/03/10 05:49:24;;;;;;;;;;;4.60;92.20;;;;;;5099293;27;19908;-65
2023/03/10 05:51:51;;;;;;;;;;;4.60;92.10;;;;;;5098654;28;19964;-65
2023/03/10 05:54:17;;;;;;;;;;;4.50;92.10;;;;;;5101733;28;19914;-65
2023/03/10 05:56:43;;;;;;;;;;;4.50;92.10;;;;;;5100985;27;20770;-65
2023/03/10 05:59:09;;;;;;;;;;;4.40;92.10;;;;;;5101028;27;19908;-66
2023/03/10 06:01:35;;;;;;;;;;;4.40;92.20;;;;;;5105612;27;19960;-65
2023/03/10 06:04:00;;;;;;;;;;;4.30;92.30;;;;;;5102180;28;20409;-65
2023/03/10 06:06:26;;;;;;;;;;;4.30;92.30;;;;;;5094534;28;19935;-66
2023/03/10 06:08:52;;;;;;;;;;;4.30;92.40;;;;;;5100253;28;19908;-65
2023/03/10 06:11:18;;;;;;;;;;;4.30;92.30;;;;;;5097018;27;19994;-66
2023/03/10 06:13:43;;;;;;;;;;;4.30;92.30;;;;;;5095903;28;20433;-66
2023/03/10 06:16:09;;;;;;;;;;;4.30;92.30;;;;;;5099932;28;19981;-66
2023/03/10 06:18:34;;;;;;;;;;;4.40;92.30;;;;;;5102717;28;19914;-66
2023/03/10 06:21:03;;;;;;;;;;;4.30;92.20;;;;;;5105021;28;20048;-66
2023/03/10 06:23:28;;;;;;;;;;;4.30;92.20;;;;;;5101245;27;19914;-66
2023/03/10 06:25:58;;;;;;;;;;;4.30;92.20;;;;;;5101406;28;19998;-66
2023/03/10 06:28:23;;;;;;;;;;;4.30;92.30;;;;;;5108661;27;19935;-66
2023/03/10 06:31:03;;;;;;;;;;;4.40;92.20;;;;;;5099947;28;19954;-65
2023/03/10 06:33:29;;;;;;;;;;;4.40;92.20;;;;;;5096848;28;19987;-66
2023/03/10 06:35:54;;;;;;;;;;;4.40;92.10;;;;;;5097695;28;20042;-67
2023/03/10 06:38:20;;;;;;;;;;;4.40;92.00;;;;;;5102626;28;19915;-67
2023/03/10 06:40:46;;;;;;;;;;;4.40;92.30;;;;;;5109312;27;20010;-67
2023/03/10 06:43:11;;;;;;;;;;;4.30;92.00;;;;;;5102566;27;19908;-66
2023/03/10 06:45:39;;;;;;;;;;;4.30;92.10;;;;;;5107278;27;19970;-66
2023/03/10 06:48:05;;;;;;;;;;;4.40;92.10;;;;;;5113133;27;19916;-66
2023/03/10 06:50:30;;;;;;;;;;;4.40;92.10;;;;;;5106314;27;19969;-67
2023/03/10 06:52:56;;;;;;;;;;;4.40;92.10;;;;;;5107619;27;19916;-66
2023/03/10 06:55:21;;;;;;;;;;;4.40;92.00;;;;;;5110923;27;19934;-66
2023/03/10 06:57:46;;;;;;;;;;;4.30;92.10;;;;;;5098788;28;20290;-67
2023/03/10 07:00:14;;;;;;;;;;;4.30;92.10;;;;;;5103359;27;19912;-67
2023/03/10 07:02:40;;;;;;;;;;;4.30;92.10;;;;;;5103214;28;19930;-65
2023/03/10 07:05:06;;;;;;;;;;;4.30;92.20;;;;;;5103435;27;20366;-67
2023/03/10 07:07:32;;;;;;;;;;;4.30;92.20;;;;;;5103954;27;20194;-67
2023/03/10 07:09:57;;;;;;;;;;;4.20;92.20;;;;;;5104902;28;19914;-66
2023/03/10 07:12:23;;;;;;;;;;;4.20;92.20;;;;;;5101231;28;19907;-67
2023/03/10 07:14:49;;;;;;;;;;;4.10;92.40;;;;;;5102348;28;20563;-66
2023/03/10 07:17:14;;;;;;;;;;;4.10;92.50;;;;;;5098888;27;19907;-67
2023/03/10 07:19:40;;;;;;;;;;;4.10;92.60;;;;;;5119487;27;19919;-67
2023/03/10 07:22:05;;;;;;;;;;;4.20;92.60;;;;;;5125042;27;19914;-67
2023/03/10 07:24:30;;;;;;;;;;;4.20;92.50;;;;;;5100274;27;19970;-67
2023/03/10 07:27:00;;;;;;;;;;;4.20;92.50;;;;;;5099318;28;20255;-66
2023/03/10 07:29:25;;;;;;;;;;;4.30;92.40;;;;;;5104884;28;19964;-67
2023/03/10 07:31:51;;;;;;;;;;;4.30;92.30;;;;;;5102417;27;19911;-66
2023/03/10 07:34:16;;;;;;;;;;;4.30;92.40;;;;;;5109372;28;19915;-66
2023/03/10 07:36:42;;;;;;;;;;;4.30;92.40;;;;;;5122064;27;19911;-67
2023/03/10 07:39:08;;;;;;;;;;;4.30;92.50;;;;;;5112454;27;20330;-67
2023/03/10 07:41:33;;;;;;;;;;;4.20;92.50;;;;;;5109188;27;19923;-66
2023/03/10 07:43:59;;;;;;;;;;;4.30;92.60;;;;;;5104331;28;20377;-67
2023/03/10 07:46:24;;;;;;;;;;;4.40;92.50;;;;;;5122259;27;19976;-67
2023/03/10 07:48:51;;;;;;;;;;;4.40;92.40;;;;;;5111150;27;19911;-67
2023/03/10 07:51:17;;;;;;;;;;;4.40;92.40;;;;;;5106242;27;20413;-67
2023/03/10 07:53:43;;;;;;;;;;;4.40;92.50;;;;;;5113036;27;19962;-66
2023/03/10 07:56:09;;;;;;;;;;;4.30;92.40;;;;;;5098790;28;20022;-66
2023/03/10 07:58:35;;;;;;;;;;;4.40;92.50;;;;;;5101727;27;19916;-66
2023/03/10 08:01:01;;;;;;;;;;;4.50;92.50;;;;;;5099209;27;19915;-66
2023/03/10 08:03:27;;;;;;;;;;;4.50;92.40;;;;;;5104512;27;19907;-67
2023/03/10 08:05:53;;;;;;;;;;;4.30;92.40;;;;;;5102606;27;19912;-66
2023/03/10 08:08:18;;;;;;;;;;;4.20;92.60;;;;;;5100965;27;19916;-66
2023/03/10 08:10:44;;;;;;;;;;;4.20;92.80;;;;;;5106002;27;19994;-68
2023/03/10 08:13:10;;;;;;;;;;;4.20;92.80;;;;;;5101287;27;19916;-68
2023/03/10 08:15:36;;;;;;;;;;;4.20;92.90;;;;;;5096475;27;20297;-67
2023/03/10 08:18:04;;;;;;;;;;;4.20;92.90;;;;;;5107570;27;19907;-68
2023/03/10 08:20:31;;;;;;;;;;;4.10;92.90;;;;;;5095448;28;19931;-68
2023/03/10 08:22:56;;;;;;;;;;;4.10;93.00;;;;;;5102260;27;21185;-68
2023/03/10 08:25:22;;;;;;;;;;;4.10;93.10;;;;;;5101847;27;19911;-67
2023/03/10 08:27:48;;;;;;;;;;;4.10;93.10;;;;;;5098984;28;19916;-67
2023/03/10 08:30:14;;;;;;;;;;;4.10;93.20;;;;;;5102761;27;19916;-67
2023/03/10 08:32:40;;;;;;;;;;;4.10;93.30;;;;;;5103867;27;19957;-67
2023/03/10 08:35:05;;;;;;;;;;;4.20;93.30;;;;;;5104887;27;19919;-68
2023/03/10 08:37:31;;;;;;;;;;;4.20;93.30;;;;;;5101454;27;20267;-68
2023/03/10 08:39:57;;;;;;;;;;;4.30;93.30;;;;;;5104737;27;19915;-68
2023/03/10 08:42:22;;;;;;;;;;;4.40;93.20;;;;;;5106094;27;19912;-68
2023/03/10 08:44:48;;;;;;;;;;;4.40;93.20;;;;;;5104862;28;19916;-68
2023/03/10 08:47:13;;;;;;;;;;;4.50;93.20;;;;;;5098965;27;19911;-68
2023/03/10 08:49:39;;;;;;;;;;;4.40;93.10;;;;;;5104838;27;19990;-67
2023/03/10 08:52:06;;;;;;;;;;;4.50;93.20;;;;;;5108097;28;20357;-68
2023/03/10 08:54:32;;;;;;;;;;;4.40;93.20;;;;;;5104573;27;19968;-68
2023/03/10 08:56:57;;;;;;;;;;;4.50;93.30;;;;;;5105083;27;19919;-68
2023/03/10 08:59:23;;;;;;;;;;;4.60;93.30;;;;;;5104850;27;19908;-68
2023/03/10 09:01:48;;;;;;;;;;;4.60;93.20;;;;;;5109286;28;20002;-67
2023/03/10 09:04:14;;;;;;;;;;;4.60;93.40;;;;;;5102418;27;20350;-68
2023/03/10 09:06:39;;;;;;;;;;;4.60;93.10;;;;;;5108437;27;20346;-67
2023/03/10 09:09:06;;;;;;;;;;;4.60;93.20;;;;;;5112367;27;19903;-68
2023/03/10 09:11:33;;;;;;;;;;;4.60;93.20;;;;;;5101744;27;19922;-68
2023/03/10 09:13:59;;;;;;;;;;;4.60;93.30;;;;;;5107456;27;20006;-67
2023/03/10 09:16:25;;;;;;;;;;;4.70;93.30;;;;;;5105426;28;20410;-68
2023/03/10 09:18:50;;;;;;;;;;;4.70;93.20;;;;;;5107088;27;19911;-68
2023/03/10 09:21:16;;;;;;;;;;;4.80;93.20;;;;;;5109789;28;20006;-67
2023/03/10 09:23:44;;;;;;;;;;;4.80;93.20;;;;;;5105786;27;20397;-68
2023/03/10 09:26:09;;;;;;;;;;;4.70;93.10;;;;;;5107328;27;19994;-68
2023/03/10 09:28:35;;;;;;;;;;;4.70;93.20;;;;;;5108679;28;20023;-68
2023/03/10 09:31:02;;;;;;;;;;;4.60;93.30;;;;;;5104700;27;19919;-68
2023/03/10 09:33:28;;;;;;;;;;;4.70;93.30;;;;;;5108509;27;19998;-67
2023/03/10 09:35:56;;;;;;;;;;;4.70;93.30;;;;;;5109656;28;19908;-66
2023/03/10 09:38:21;;;;;;;;;;;4.80;93.30;;;;;;5111543;27;19904;-66
2023/03/10 09:41:13;;;;;;;;;;;4.80;93.20;;;;;;5111084;27;19928;-66
2023/03/10 09:43:41;;;;;;;;;;;4.70;93.20;;;;;;5102749;27;19907;-68
2023/03/10 09:46:16;;;;;;;;;;;4.90;93.30;;;;;;5105076;27;19907;-67
2023/03/10 09:48:49;;;;;;;;;;;5.00;93.20;;;;;;5103472;28;19912;-67
2023/03/10 09:51:17;;;;;;;;;;;4.90;93.20;;;;;;5104675;27;19914;-66
2023/03/10 09:53:42;;;;;;;;;;;5.00;93.30;;;;;;5106139;28;19968;-66
2023/03/10 09:56:13;;;;;;;;;;;5.10;93.10;;;;;;5107245;27;20371;-66
2023/03/10 09:58:41;;;;;;;;;;;5.10;93.10;;;;;;5106323;27;19946;-67
2023/03/10 10:01:12;;;;;;;;;;;5.30;93.10;;;;;;5105825;28;19915;-69
2023/03/10 10:03:49;;;;;;;;;;;5.40;92.90;;;;;;5102667;27;20392;-67
2023/03/10 10:06:31;;;;;;;;;;;5.40;92.80;;;;;;5104295;28;19914;-67
2023/03/10 10:09:01;;;;;;;;;;;5.40;92.70;;;;;;5107895;27;19925;-67
2023/03/10 10:11:26;;;;;;;;;;;5.30;92.70;;;;;;5109048;28;19946;-68
2023/03/10 10:14:12;;;;;;;;;;;5.30;92.70;;;;;;5107434;28;20004;-67
2023/03/10 10:16:43;;;;;;;;;;;5.30;92.80;;;;;;5109950;27;19911;-67
2023/03/10 10:19:08;;;;;;;;;;;5.40;92.70;;;;;;5113121;28;19916;-66
2023/03/10 10:21:33;;;;;;;;;;;5.30;92.70;;;;;;5111428;27;20051;-68
2023/03/10 10:23:59;;;;;;;;;;;5.30;92.80;;;;;;5108447;28;20043;-67
2023/03/10 10:26:26;;;;;;;;;;;5.50;92.90;;;;;;5112304;28;19911;-68
2023/03/10 10:28:55;;;;;;;;;;;5.50;92.70;;;;;;5102742;28;19916;-67
2023/03/10 10:31:25;;;;;;;;;;;5.60;92.60;;;;;;5105665;28;19915;-67
2023/03/10 10:33:56;;;;;;;;;;;5.60;92.50;;;;;;5105378;28;19911;-68
2023/03/10 10:36:23;;;;;;;;;;;5.60;92.40;;;;;;5107530;28;19911;-68
2023/03/10 10:38:50;;;;;;;;;;;5.70;92.40;;;;;;5105650;28;20414;-66
2023/03/10 10:41:16;;;;;;;;;;;5.60;92.30;;;;;;5102788;28;20357;-65
2023/03/10 10:43:43;;;;;;;;;;;5.50;92.30;;;;;;5105782;28;19949;-67
2023/03/10 10:46:10;;;;;;;;;;;5.50;92.30;;;;;;5108229;28;20000;-68
2023/03/10 10:48:37;;;;;;;;;;;5.40;92.50;;;;;;5113175;28;20310;-67
2023/03/10 10:51:26;;;;;;;;;;;5.50;92.50;;;;;;5106210;28;19916;-67
2023/03/10 10:53:53;;;;;;;;;;;5.50;92.50;;;;;;5110157;28;19922;-68
2023/03/10 10:56:19;;;;;;;;;;;5.60;92.40;;;;;;5112492;27;19989;-67
2023/03/10 10:58:58;;;;;;;;;;;5.70;92.40;;;;;;5110440;27;19903;-67
2023/03/10 11:01:24;;;;;;;;;;;5.70;92.30;;;;;;5114031;27;20460;-68
2023/03/10 11:04:02;;;;;;;;;;;5.80;92.10;;;;;;5111877;28;19907;-68
2023/03/10 11:06:28;;;;;;;;;;;5.70;92.10;;;;;;5107115;28;19904;-68
2023/03/10 11:09:04;;;;;;;;;;;5.70;92.10;;;;;;5105836;28;19919;-67
2023/03/10 11:11:35;;;;;;;;;;;5.70;92.10;;;;;;5102086;28;19914;-68
2023/03/10 11:14:04;;;;;;;;;;;5.70;92.10;;;;;;5096515;28;19934;-67
2023/03/10 11:16:35;;;;;;;;;;;5.70;92.00;;;;;;5104209;28;20002;-67
2023/03/10 11:19:07;;;;;;;;;;;5.60;92.00;;;;;;5096352;28;20429;-67
2023/03/10 11:21:35;;;;;;;;;;;5.50;92.10;;;;;;5104569;27;20093;-68
2023/03/10 11:24:29;;;;;;;;;;;5.50;92.30;;;;;;5105599;28;19908;-68
2023/03/10 11:26:55;;;;;;;;;;;5.50;92.40;;;;;;5102143;27;19908;-67
2023/03/10 11:29:36;;;;;;;;;;;5.60;92.40;;;;;;5110768;27;20277;-67
2023/03/10 11:32:20;;;;;;;;;;;5.50;92.30;;;;;;5110843;27;20379;-67
2023/03/10 11:34:50;;;;;;;;;;;5.50;92.20;;;;;;5115410;27;20369;-68
2023/03/10 11:37:15;;;;;;;;;;;5.40;92.20;;;;;;5114535;27;19911;-68
2023/03/10 11:39:42;;;;;;;;;;;5.30;92.20;;;;;;5115336;27;19904;-67
2023/03/10 11:42:30;;;;;;;;;;;5.30;92.40;;;;;;5115506;27;20042;-67
2023/03/10 11:45:14;;;;;;;;;;;5.30;92.30;;;;;;5113679;27;19907;-68
2023/03/10 11:47:42;;;;;;;;;;;5.20;92.30;;;;;;5115400;27;19903;-68
2023/03/10 11:50:14;;;;;;;;;;;5.20;92.30;;;;;;5111459;27;19935;-67
2023/03/10 11:52:40;;;;;;;;;;;5.20;92.40;;;;;;5113428;27;19919;-67
2023/03/10 11:55:11;;;;;;;;;;;5.10;92.40;;;;;;5113853;27;20626;-67
2023/03/10 11:57:40;;;;;;;;;;;5.10;92.50;;;;;;5115574;27;20308;-67
2023/03/10 12:00:17;;;;;;;;;;;5.20;92.50;;;;;;5114089;27;20743;-68
2023/03/10 12:02:47;;;;;;;;;;;5.00;92.40;;;;;;5113486;27;19908;-68
2023/03/10 12:05:21;;;;;;;;;;;5.20;92.50;;;;;;5116161;27;20406;-67
2023/03/10 12:07:51;;;;;;;;;;;5.30;92.40;;;;;;5113795;27;20404;-67
2023/03/10 12:10:18;;;;;;;;;;;5.20;92.30;;;;;;5115522;27;20389;-68
2023/03/10 12:12:44;;;;;;;;;;;5.20;92.30;;;;;;5116521;27;19907;-67
2023/03/10 12:15:18;;;;;;;;;;;5.20;92.30;;;;;;5112676;27;19907;-67
2023/03/10 12:17:44;;;;;;;;;;;5.20;92.20;;;;;;5111798;27;19954;-67
2023/03/10 12:20:13;;;;;;;;;;;5.10;92.20;;;;;;5115350;27;20018;-67
2023/03/10 12:22:40;;;;;;;;;;;5.00;92.30;;;;;;5115710;27;20340;-67
2023/03/10 12:25:24;;;;;;;;;;;5.00;92.30;;;;;;5113388;27;19904;-68
2023/03/10 12:28:12;;;;;;;;;;;5.10;92.40;;;;;;5112312;27;19908;-68
2023/03/10 12:30:47;;;;;;;;;;;5.10;92.40;;;;;;5106363;27;20010;-68
2023/03/10 12:33:37;;;;;;;;;;;5.10;92.30;;;;;;5112551;27;20251;-67
2023/03/10 12:36:08;;;;;;;;;;;5.10;92.30;;;;;;5115035;27;19912;-67
2023/03/10 12:38:48;;;;;;;;;;;5.20;92.30;;;;;;5112065;27;19907;-67
2023/03/10 12:41:33;;;;;;;;;;;5.20;92.30;;;;;;5110504;27;19912;-68
2023/03/10 12:44:00;;;;;;;;;;;5.20;92.30;;;;;;5108163;27;19903;-67
2023/03/10 12:46:44;;;;;;;;;;;5.20;92.20;;;;;;5108115;27;20353;-67
2023/03/10 12:49:10;;;;;;;;;;;5.30;92.20;;;;;;5109457;27;19949;-68
2023/03/10 12:51:39;;;;;;;;;;;5.30;92.20;;;;;;5109802;27;19907;-67
2023/03/10 12:54:20;;;;;;;;;;;5.20;92.20;;;;;;5109553;27;19914;-67
2023/03/10 12:57:04;;;;;;;;;;;5.20;92.20;;;;;;5107117;27;20533;-67
2023/03/10 12:59:34;;;;;;;;;;;5.20;92.20;;;;;;5109695;27;20051;-66
2023/03/10 13:02:00;;;;;;;;;;;5.20;92.10;;;;;;5107667;27;20689;-68
2023/03/10 13:04:26;;;;;;;;;;;5.20;92.10;;;;;;5107416;27;19915;-67
2023/03/10 13:06:55;;;;;;;;;;;5.20;92.20;;;;;;5107918;27;19913;-67
2023/03/10 13:09:50;;;;;;;;;;;5.20;92.10;;;;;;5110648;27;19955;-66
2023/03/10 13:12:20;;;;;;;;;;;5.20;92.10;;;;;;5096082;27;19926;-68
2023/03/10 13:14:49;;;;;;;;;;;5.10;92.00;;;;;;5108324;27;19904;-67
2023/03/10 13:17:28;;;;;;;;;;;5.10;92.10;;;;;;5105928;27;19950;-67
2023/03/10 13:19:57;;;;;;;;;;;5.10;92.20;;;;;;5109010;27;19911;-68
2023/03/10 13:22:22;;;;;;;;;;;5.00;92.20;;;;;;5114969;27;19913;-67
2023/03/10 13:24:56;;;;;;;;;;;5.00;92.20;;;;;;5114144;27;19911;-67
2023/03/10 13:27:26;;;;;;;;;;;5.00;92.20;;;;;;5113283;27;20413;-67
2023/03/10 13:29:56;;;;;;;;;;;4.90;92.20;;;;;;5114048;27;19950;-67
2023/03/10 13:32:21;;;;;;;;;;;4.90;92.30;;;;;;5116073;27;19911;-67
2023/03/10 13:34:47;;;;;;;;;;;4.80;92.30;;;;;;5112320;27;19903;-68
2023/03/10 13:37:12;;;;;;;;;;;4.80;92.40;;;;;;5112037;27;20405;-67
2023/03/10 13:39:38;;;;;;;;;;;4.80;92.40;;;;;;5113759;27;19911;-67
2023/03/10 13:42:12;;;;;;;;;;;4.70;92.50;;;;;;5102524;28;19912;-68
2023/03/10 13:44:39;;;;;;;;;;;4.70;92.50;;;;;;5101451;28;20777;-67
2023/03/10 13:47:31;;;;;;;;;;;4.70;92.50;;;;;;5106230;27;19912;-67
2023/03/10 13:49:58;;;;;;;;;;;4.70;92.50;;;;;;5100034;28;19912;-67
2023/03/10 13:52:25;;;;;;;;;;;4.70;92.50;;;;;;5106598;28;19904;-67
2023/03/10 13:54:51;;;;;;;;;;;4.60;92.50;;;;;;5112633;27;19908;-67
2023/03/10 13:57:16;;;;;;;;;;;4.60;92.50;;;;;;5110416;27;19918;-67
2023/03/10 13:59:42;;;;;;;;;;;4.60;92.50;;;;;;5105914;28;20312;-68
2023/03/10 14:02:18;;;;;;;;;;;4.50;92.50;;;;;;5110201;27;20003;-68
2023/03/10 14:04:43;;;;;;;;;;;4.50;92.50;;;;;;5106199;27;19915;-67
2023/03/10 14:07:12;;;;;;;;;;;4.40;92.50;;;;;;5107305;28;19908;-66
2023/03/10 14:09:38;;;;;;;;;;;4.40;92.50;;;;;;5103239;28;19908;-66
2023/03/10 14:12:03;;;;;;;;;;;4.40;92.50;;;;;;5108689;28;19921;-67
2023/03/10 14:14:30;;;;;;;;;;;4.30;92.50;;;;;;5109075;28;19953;-68
2023/03/10 14:17:03;;;;;;;;;;;4.30;92.60;;;;;;5108846;28;19912;-68
2023/03/10 14:19:45;;;;;;;;;;;4.30;92.60;;;;;;5103834;28;19908;-67
2023/03/10 14:22:20;;;;;;;;;;;4.30;92.60;;;;;;5108663;28;19935;-67
2023/03/10 14:24:45;;;;;;;;;;;4.20;92.50;;;;;;5113594;28;19912;-67
2023/03/10 14:27:12;;;;;;;;;;;4.20;92.60;;;;;;5107708;28;19910;-67
2023/03/10 14:29:38;;;;;;;;;;;4.20;92.60;;;;;;5106582;28;19916;-68
2023/03/10 14:32:04;;;;;;;;;;;4.20;92.60;;;;;;5108863;28;20370;-67
2023/03/10 14:34:29;;;;;;;;;;;4.20;92.50;;;;;;5105097;28;19922;-68
2023/03/10 14:36:55;;;;;;;;;;;4.20;92.50;;;;;;5109087;28;19919;-67